sensor_id;sensor_type;location;lat;lon;timestamp;P1;durP1;ratioP1;P2;durP2;ratioP2
12852;SDS011;6495;51.808;7.478;2022-11-22T00:01:59;5.83;;;2.90;;
12852;SDS011;6495;51.808;7.478;2022-11-22T00:04:46;6.67;;;3.33;;
12852;SDS011;6495;51.808;7.478;2022-11-22T00:07:32;3.40;;;2.70;;
12852;SDS011;6495;51.808;7.478;2022-11-22T00:10:21;9.00;;;2.90;;
12852;SDS011;6495;51.808;7.478;2022-11-22T00:13:08;4.40;;;2.47;;
12852;SDS011;6495;51.808;7.478;2022-11-22T00:15:58;3.50;;;2.60;;
12852;SDS011;6495;51.808;7.478;2022-11-22T00:18:45;4.60;;;2.73;;
12852;SDS011;6495;51.808;7.478;2022-11-22T00:21:32;4.80;;;3.40;;
12852;SDS011;6495;51.808;7.478;2022-11-22T00:24:19;3.93;;;2.47;;
12852;SDS011;6495;51.808;7.478;2022-11-22T00:27:07;5.73;;;2.93;;
12852;SDS011;6495;51.808;7.478;2022-11-22T00:29:53;7.60;;;3.27;;
12852;SDS011;6495;51.808;7.478;2022-11-22T00:32:40;3.57;;;2.27;;
12852;SDS011;6495;51.808;7.478;2022-11-22T00:35:27;6.73;;;2.97;;
12852;SDS011;6495;51.808;7.478;2022-11-22T00:38:13;3.67;;;2.60;;
12852;SDS011;6495;51.808;7.478;2022-11-22T00:41:00;4.93;;;3.00;;
12852;SDS011;6495;51.808;7.478;2022-11-22T00:43:48;3.63;;;2.27;;
12852;SDS011;6495;51.808;7.478;2022-11-22T00:46:35;3.67;;;2.53;;
12852;SDS011;6495;51.808;7.478;2022-11-22T00:49:22;8.03;;;2.67;;
12852;SDS011;6495;51.808;7.478;2022-11-22T00:52:09;5.17;;;2.77;;
12852;SDS011;6495;51.808;7.478;2022-11-22T00:54:56;6.03;;;2.47;;
12852;SDS011;6495;51.808;7.478;2022-11-22T00:57:43;4.43;;;2.20;;
12852;SDS011;6495;51.808;7.478;2022-11-22T01:00:31;4.93;;;2.10;;
12852;SDS011;6495;51.808;7.478;2022-11-22T01:03:18;6.90;;;2.30;;
12852;SDS011;6495;51.808;7.478;2022-11-22T01:06:05;8.03;;;1.50;;
12852;SDS011;6495;51.808;7.478;2022-11-22T01:08:52;1.70;;;1.50;;
12852;SDS011;6495;51.808;7.478;2022-11-22T01:11:41;3.47;;;1.77;;
12852;SDS011;6495;51.808;7.478;2022-11-22T01:14:27;4.90;;;1.90;;
12852;SDS011;6495;51.808;7.478;2022-11-22T01:17:16;2.63;;;1.60;;
12852;SDS011;6495;51.808;7.478;2022-11-22T01:20:03;3.10;;;1.80;;
12852;SDS011;6495;51.808;7.478;2022-11-22T01:22:51;3.03;;;1.60;;
12852;SDS011;6495;51.808;7.478;2022-11-22T01:25:41;1.73;;;1.50;;
12852;SDS011;6495;51.808;7.478;2022-11-22T01:28:28;2.47;;;1.60;;
12852;SDS011;6495;51.808;7.478;2022-11-22T01:31:14;5.17;;;1.97;;
12852;SDS011;6495;51.808;7.478;2022-11-22T01:34:03;2.97;;;1.40;;
12852;SDS011;6495;51.808;7.478;2022-11-22T01:36:50;2.13;;;1.67;;
12852;SDS011;6495;51.808;7.478;2022-11-22T01:39:36;2.83;;;1.80;;
12852;SDS011;6495;51.808;7.478;2022-11-22T01:42:33;3.80;;;1.67;;
12852;SDS011;6495;51.808;7.478;2022-11-22T01:45:41;2.60;;;1.70;;
12852;SDS011;6495;51.808;7.478;2022-11-22T01:48:34;1.37;;;1.23;;
12852;SDS011;6495;51.808;7.478;2022-11-22T01:51:33;4.00;;;1.60;;
12852;SDS011;6495;51.808;7.478;2022-11-22T01:54:26;2.83;;;1.70;;
12852;SDS011;6495;51.808;7.478;2022-11-22T01:57:18;2.83;;;1.70;;
12852;SDS011;6495;51.808;7.478;2022-11-22T02:00:11;2.07;;;1.47;;
12852;SDS011;6495;51.808;7.478;2022-11-22T02:03:01;2.57;;;1.33;;
12852;SDS011;6495;51.808;7.478;2022-11-22T02:05:54;2.07;;;1.20;;
12852;SDS011;6495;51.808;7.478;2022-11-22T02:08:46;1.87;;;1.07;;
12852;SDS011;6495;51.808;7.478;2022-11-22T02:11:40;1.90;;;1.60;;
12852;SDS011;6495;51.808;7.478;2022-11-22T02:14:33;2.43;;;1.43;;
12852;SDS011;6495;51.808;7.478;2022-11-22T02:17:23;3.50;;;1.23;;
12852;SDS011;6495;51.808;7.478;2022-11-22T02:20:11;3.60;;;1.57;;
12852;SDS011;6495;51.808;7.478;2022-11-22T02:23:02;2.40;;;1.27;;
12852;SDS011;6495;51.808;7.478;2022-11-22T02:25:59;1.53;;;1.40;;
12852;SDS011;6495;51.808;7.478;2022-11-22T02:28:48;1.27;;;1.17;;
12852;SDS011;6495;51.808;7.478;2022-11-22T02:31:39;1.17;;;1.07;;
12852;SDS011;6495;51.808;7.478;2022-11-22T02:34:28;1.73;;;1.17;;
12852;SDS011;6495;51.808;7.478;2022-11-22T02:37:30;3.17;;;1.50;;
12852;SDS011;6495;51.808;7.478;2022-11-22T02:40:18;2.13;;;1.33;;
12852;SDS011;6495;51.808;7.478;2022-11-22T02:43:08;1.53;;;1.10;;
12852;SDS011;6495;51.808;7.478;2022-11-22T02:46:03;1.43;;;1.20;;
12852;SDS011;6495;51.808;7.478;2022-11-22T02:48:51;1.70;;;1.00;;
12852;SDS011;6495;51.808;7.478;2022-11-22T02:51:38;1.57;;;1.27;;
12852;SDS011;6495;51.808;7.478;2022-11-22T02:54:25;1.40;;;1.07;;
12852;SDS011;6495;51.808;7.478;2022-11-22T02:57:12;1.87;;;1.00;;
12852;SDS011;6495;51.808;7.478;2022-11-22T03:00:00;4.20;;;1.60;;
12852;SDS011;6495;51.808;7.478;2022-11-22T03:02:47;1.10;;;1.00;;
12852;SDS011;6495;51.808;7.478;2022-11-22T03:05:33;1.53;;;1.20;;
12852;SDS011;6495;51.808;7.478;2022-11-22T03:08:20;1.23;;;1.10;;
12852;SDS011;6495;51.808;7.478;2022-11-22T03:11:07;1.60;;;1.00;;
12852;SDS011;6495;51.808;7.478;2022-11-22T03:13:54;2.10;;;1.30;;
12852;SDS011;6495;51.808;7.478;2022-11-22T03:16:42;1.47;;;1.20;;
12852;SDS011;6495;51.808;7.478;2022-11-22T03:19:30;2.43;;;1.40;;
12852;SDS011;6495;51.808;7.478;2022-11-22T03:22:17;1.73;;;1.43;;
12852;SDS011;6495;51.808;7.478;2022-11-22T03:25:04;1.17;;;1.07;;
12852;SDS011;6495;51.808;7.478;2022-11-22T03:27:52;2.07;;;1.03;;
12852;SDS011;6495;51.808;7.478;2022-11-22T03:30:39;3.10;;;1.30;;
12852;SDS011;6495;51.808;7.478;2022-11-22T03:33:28;3.57;;;1.53;;
12852;SDS011;6495;51.808;7.478;2022-11-22T03:36:14;2.10;;;1.13;;
12852;SDS011;6495;51.808;7.478;2022-11-22T03:39:01;1.40;;;1.30;;
12852;SDS011;6495;51.808;7.478;2022-11-22T03:41:48;1.50;;;1.40;;
12852;SDS011;6495;51.808;7.478;2022-11-22T03:44:35;0.90;;;0.90;;
12852;SDS011;6495;51.808;7.478;2022-11-22T03:47:22;1.83;;;1.40;;
12852;SDS011;6495;51.808;7.478;2022-11-22T03:50:10;2.40;;;1.60;;
12852;SDS011;6495;51.808;7.478;2022-11-22T03:52:57;1.90;;;1.40;;
12852;SDS011;6495;51.808;7.478;2022-11-22T03:55:44;1.93;;;1.20;;
12852;SDS011;6495;51.808;7.478;2022-11-22T03:58:31;3.97;;;1.40;;
12852;SDS011;6495;51.808;7.478;2022-11-22T04:01:18;1.23;;;1.13;;
12852;SDS011;6495;51.808;7.478;2022-11-22T04:04:05;2.63;;;1.50;;
12852;SDS011;6495;51.808;7.478;2022-11-22T04:06:53;1.83;;;1.40;;
12852;SDS011;6495;51.808;7.478;2022-11-22T04:09:39;4.83;;;1.30;;
12852;SDS011;6495;51.808;7.478;2022-11-22T04:12:27;4.30;;;1.50;;
12852;SDS011;6495;51.808;7.478;2022-11-22T04:15:14;2.57;;;1.50;;
12852;SDS011;6495;51.808;7.478;2022-11-22T04:18:00;3.00;;;1.40;;
12852;SDS011;6495;51.808;7.478;2022-11-22T04:20:47;1.73;;;1.40;;
12852;SDS011;6495;51.808;7.478;2022-11-22T04:23:54;1.20;;;1.10;;
12852;SDS011;6495;51.808;7.478;2022-11-22T04:26:54;1.53;;;1.10;;
12852;SDS011;6495;51.808;7.478;2022-11-22T04:29:42;3.00;;;1.10;;
12852;SDS011;6495;51.808;7.478;2022-11-22T04:32:29;3.43;;;1.57;;
12852;SDS011;6495;51.808;7.478;2022-11-22T04:35:30;5.57;;;1.80;;
12852;SDS011;6495;51.808;7.478;2022-11-22T04:38:17;5.70;;;1.27;;
12852;SDS011;6495;51.808;7.478;2022-11-22T04:41:06;2.20;;;1.10;;
12852;SDS011;6495;51.808;7.478;2022-11-22T04:43:53;3.43;;;1.63;;
12852;SDS011;6495;51.808;7.478;2022-11-22T04:47:03;4.33;;;1.80;;
12852;SDS011;6495;51.808;7.478;2022-11-22T04:49:50;4.57;;;1.70;;
12852;SDS011;6495;51.808;7.478;2022-11-22T04:52:36;5.97;;;1.67;;
12852;SDS011;6495;51.808;7.478;2022-11-22T04:55:37;2.43;;;1.43;;
12852;SDS011;6495;51.808;7.478;2022-11-22T04:58:25;1.53;;;1.33;;
12852;SDS011;6495;51.808;7.478;2022-11-22T05:01:12;2.67;;;1.20;;
12852;SDS011;6495;51.808;7.478;2022-11-22T05:03:58;2.00;;;1.47;;
12852;SDS011;6495;51.808;7.478;2022-11-22T05:06:45;3.47;;;1.43;;
12852;SDS011;6495;51.808;7.478;2022-11-22T05:09:32;6.03;;;1.80;;
12852;SDS011;6495;51.808;7.478;2022-11-22T05:12:19;4.57;;;1.60;;
12852;SDS011;6495;51.808;7.478;2022-11-22T05:15:07;6.53;;;1.63;;
12852;SDS011;6495;51.808;7.478;2022-11-22T05:17:55;5.27;;;1.50;;
12852;SDS011;6495;51.808;7.478;2022-11-22T05:20:42;4.43;;;1.37;;
12852;SDS011;6495;51.808;7.478;2022-11-22T05:23:29;3.00;;;1.03;;
12852;SDS011;6495;51.808;7.478;2022-11-22T05:26:48;2.33;;;1.27;;
12852;SDS011;6495;51.808;7.478;2022-11-22T05:29:35;2.67;;;1.07;;
12852;SDS011;6495;51.808;7.478;2022-11-22T05:32:23;4.00;;;1.30;;
12852;SDS011;6495;51.808;7.478;2022-11-22T05:35:09;4.50;;;1.70;;
12852;SDS011;6495;51.808;7.478;2022-11-22T05:37:57;3.73;;;1.40;;
12852;SDS011;6495;51.808;7.478;2022-11-22T05:40:44;7.93;;;1.63;;
12852;SDS011;6495;51.808;7.478;2022-11-22T05:43:31;2.40;;;1.47;;
12852;SDS011;6495;51.808;7.478;2022-11-22T05:46:19;3.47;;;1.27;;
12852;SDS011;6495;51.808;7.478;2022-11-22T05:49:10;7.00;;;1.90;;
12852;SDS011;6495;51.808;7.478;2022-11-22T05:51:57;8.73;;;1.73;;
12852;SDS011;6495;51.808;7.478;2022-11-22T05:54:44;6.43;;;1.30;;
12852;SDS011;6495;51.808;7.478;2022-11-22T05:57:31;3.40;;;1.40;;
12852;SDS011;6495;51.808;7.478;2022-11-22T06:00:19;3.53;;;1.63;;
12852;SDS011;6495;51.808;7.478;2022-11-22T06:03:06;3.33;;;1.27;;
12852;SDS011;6495;51.808;7.478;2022-11-22T06:05:54;5.33;;;1.90;;
12852;SDS011;6495;51.808;7.478;2022-11-22T06:08:41;5.13;;;1.50;;
12852;SDS011;6495;51.808;7.478;2022-11-22T06:11:31;3.97;;;1.67;;
12852;SDS011;6495;51.808;7.478;2022-11-22T06:14:18;1.90;;;1.50;;
12852;SDS011;6495;51.808;7.478;2022-11-22T06:17:05;6.80;;;1.40;;
12852;SDS011;6495;51.808;7.478;2022-11-22T06:19:52;3.03;;;1.17;;
12852;SDS011;6495;51.808;7.478;2022-11-22T06:22:40;5.53;;;1.50;;
12852;SDS011;6495;51.808;7.478;2022-11-22T06:25:26;2.93;;;1.30;;
12852;SDS011;6495;51.808;7.478;2022-11-22T06:28:13;3.03;;;1.43;;
12852;SDS011;6495;51.808;7.478;2022-11-22T06:31:00;6.13;;;1.97;;
12852;SDS011;6495;51.808;7.478;2022-11-22T06:33:48;2.30;;;1.60;;
12852;SDS011;6495;51.808;7.478;2022-11-22T06:36:36;6.47;;;1.87;;
12852;SDS011;6495;51.808;7.478;2022-11-22T06:39:24;2.93;;;1.17;;
12852;SDS011;6495;51.808;7.478;2022-11-22T06:42:12;3.67;;;1.70;;
12852;SDS011;6495;51.808;7.478;2022-11-22T06:44:59;2.37;;;1.67;;
12852;SDS011;6495;51.808;7.478;2022-11-22T06:47:45;4.50;;;1.40;;
12852;SDS011;6495;51.808;7.478;2022-11-22T06:50:33;3.60;;;1.57;;
12852;SDS011;6495;51.808;7.478;2022-11-22T06:53:19;6.83;;;2.07;;
12852;SDS011;6495;51.808;7.478;2022-11-22T06:56:28;4.17;;;1.67;;
12852;SDS011;6495;51.808;7.478;2022-11-22T06:59:16;1.43;;;1.23;;
12852;SDS011;6495;51.808;7.478;2022-11-22T07:02:03;2.17;;;1.37;;
12852;SDS011;6495;51.808;7.478;2022-11-22T07:04:51;2.53;;;1.50;;
12852;SDS011;6495;51.808;7.478;2022-11-22T07:07:57;3.40;;;1.40;;
12852;SDS011;6495;51.808;7.478;2022-11-22T07:10:54;4.53;;;1.60;;
12852;SDS011;6495;51.808;7.478;2022-11-22T07:13:49;3.90;;;1.70;;
12852;SDS011;6495;51.808;7.478;2022-11-22T07:16:36;3.10;;;1.90;;
12852;SDS011;6495;51.808;7.478;2022-11-22T07:19:24;5.43;;;1.57;;
12852;SDS011;6495;51.808;7.478;2022-11-22T07:22:10;3.93;;;1.77;;
12852;SDS011;6495;51.808;7.478;2022-11-22T07:24:57;6.40;;;1.80;;
12852;SDS011;6495;51.808;7.478;2022-11-22T07:27:44;5.70;;;1.90;;
12852;SDS011;6495;51.808;7.478;2022-11-22T07:30:32;6.17;;;1.07;;
12852;SDS011;6495;51.808;7.478;2022-11-22T07:33:23;3.23;;;1.77;;
12852;SDS011;6495;51.808;7.478;2022-11-22T07:36:10;6.50;;;1.20;;
12852;SDS011;6495;51.808;7.478;2022-11-22T07:38:58;6.87;;;1.37;;
12852;SDS011;6495;51.808;7.478;2022-11-22T07:41:47;1.60;;;1.30;;
12852;SDS011;6495;51.808;7.478;2022-11-22T07:44:33;3.93;;;1.47;;
12852;SDS011;6495;51.808;7.478;2022-11-22T07:47:21;5.00;;;1.47;;
12852;SDS011;6495;51.808;7.478;2022-11-22T07:50:08;0.90;;;0.87;;
12852;SDS011;6495;51.808;7.478;2022-11-22T07:52:55;4.40;;;1.30;;
12852;SDS011;6495;51.808;7.478;2022-11-22T07:55:42;1.20;;;1.10;;
12852;SDS011;6495;51.808;7.478;2022-11-22T07:58:29;4.67;;;1.23;;
12852;SDS011;6495;51.808;7.478;2022-11-22T08:01:18;3.87;;;1.13;;
12852;SDS011;6495;51.808;7.478;2022-11-22T08:04:07;2.97;;;1.13;;
12852;SDS011;6495;51.808;7.478;2022-11-22T08:06:53;6.80;;;1.77;;
12852;SDS011;6495;51.808;7.478;2022-11-22T08:09:40;2.70;;;1.10;;
12852;SDS011;6495;51.808;7.478;2022-11-22T08:12:27;3.50;;;1.50;;
12852;SDS011;6495;51.808;7.478;2022-11-22T08:15:14;3.47;;;1.10;;
12852;SDS011;6495;51.808;7.478;2022-11-22T08:18:02;2.00;;;1.03;;
12852;SDS011;6495;51.808;7.478;2022-11-22T08:20:50;3.50;;;1.67;;
12852;SDS011;6495;51.808;7.478;2022-11-22T08:23:37;2.77;;;1.07;;
12852;SDS011;6495;51.808;7.478;2022-11-22T08:26:24;4.97;;;1.53;;
12852;SDS011;6495;51.808;7.478;2022-11-22T08:29:11;3.10;;;1.20;;
12852;SDS011;6495;51.808;7.478;2022-11-22T08:31:58;3.93;;;1.90;;
12852;SDS011;6495;51.808;7.478;2022-11-22T08:34:44;4.23;;;1.73;;
12852;SDS011;6495;51.808;7.478;2022-11-22T08:37:33;2.70;;;1.40;;
12852;SDS011;6495;51.808;7.478;2022-11-22T08:40:20;5.27;;;1.60;;
12852;SDS011;6495;51.808;7.478;2022-11-22T08:43:06;5.60;;;1.53;;
12852;SDS011;6495;51.808;7.478;2022-11-22T08:45:54;7.73;;;1.73;;
12852;SDS011;6495;51.808;7.478;2022-11-22T08:48:42;7.00;;;2.07;;
12852;SDS011;6495;51.808;7.478;2022-11-22T08:51:29;4.70;;;1.07;;
12852;SDS011;6495;51.808;7.478;2022-11-22T08:54:18;2.80;;;1.93;;
12852;SDS011;6495;51.808;7.478;2022-11-22T08:57:04;9.10;;;1.60;;
12852;SDS011;6495;51.808;7.478;2022-11-22T08:59:51;3.33;;;1.67;;
12852;SDS011;6495;51.808;7.478;2022-11-22T09:02:37;2.50;;;1.00;;
12852;SDS011;6495;51.808;7.478;2022-11-22T09:05:24;5.00;;;1.73;;
12852;SDS011;6495;51.808;7.478;2022-11-22T09:08:11;4.23;;;1.30;;
12852;SDS011;6495;51.808;7.478;2022-11-22T09:11:07;4.93;;;1.83;;
12852;SDS011;6495;51.808;7.478;2022-11-22T09:13:56;5.30;;;1.60;;
12852;SDS011;6495;51.808;7.478;2022-11-22T09:16:44;5.77;;;1.50;;
12852;SDS011;6495;51.808;7.478;2022-11-22T09:19:31;5.73;;;1.60;;
12852;SDS011;6495;51.808;7.478;2022-11-22T09:22:18;4.33;;;1.13;;
12852;SDS011;6495;51.808;7.478;2022-11-22T09:25:12;1.20;;;1.07;;
12852;SDS011;6495;51.808;7.478;2022-11-22T09:28:00;4.20;;;1.00;;
12852;SDS011;6495;51.808;7.478;2022-11-22T09:30:47;3.23;;;1.17;;
12852;SDS011;6495;51.808;7.478;2022-11-22T09:33:34;5.00;;;1.20;;
12852;SDS011;6495;51.808;7.478;2022-11-22T09:36:23;3.77;;;1.47;;
12852;SDS011;6495;51.808;7.478;2022-11-22T09:39:11;2.13;;;1.23;;
12852;SDS011;6495;51.808;7.478;2022-11-22T09:42:07;7.20;;;1.17;;
12852;SDS011;6495;51.808;7.478;2022-11-22T09:45:36;4.00;;;1.30;;
12852;SDS011;6495;51.808;7.478;2022-11-22T09:48:51;4.73;;;1.20;;
12852;SDS011;6495;51.808;7.478;2022-11-22T09:52:10;4.27;;;1.57;;
12852;SDS011;6495;51.808;7.478;2022-11-22T09:55:05;3.00;;;1.00;;
12852;SDS011;6495;51.808;7.478;2022-11-22T09:58:09;1.13;;;1.03;;
12852;SDS011;6495;51.808;7.478;2022-11-22T10:01:11;2.87;;;0.80;;
12852;SDS011;6495;51.808;7.478;2022-11-22T10:04:05;4.57;;;1.00;;
12852;SDS011;6495;51.808;7.478;2022-11-22T10:07:00;2.67;;;0.97;;
12852;SDS011;6495;51.808;7.478;2022-11-22T10:09:53;2.13;;;0.90;;
12852;SDS011;6495;51.808;7.478;2022-11-22T10:12:51;0.73;;;0.73;;
12852;SDS011;6495;51.808;7.478;2022-11-22T10:15:46;4.70;;;1.20;;
12852;SDS011;6495;51.808;7.478;2022-11-22T10:18:42;0.50;;;0.47;;
12852;SDS011;6495;51.808;7.478;2022-11-22T10:21:37;4.47;;;0.80;;
12852;SDS011;6495;51.808;7.478;2022-11-22T10:24:24;5.00;;;1.03;;
12852;SDS011;6495;51.808;7.478;2022-11-22T10:27:11;2.80;;;1.00;;
12852;SDS011;6495;51.808;7.478;2022-11-22T10:30:02;1.37;;;0.90;;
12852;SDS011;6495;51.808;7.478;2022-11-22T10:32:54;4.00;;;0.90;;
12852;SDS011;6495;51.808;7.478;2022-11-22T10:35:51;2.47;;;0.73;;
12852;SDS011;6495;51.808;7.478;2022-11-22T10:39:09;4.77;;;1.03;;
12852;SDS011;6495;51.808;7.478;2022-11-22T10:42:26;3.70;;;0.60;;
12852;SDS011;6495;51.808;7.478;2022-11-22T10:45:38;1.50;;;1.13;;
12852;SDS011;6495;51.808;7.478;2022-11-22T10:48:33;1.63;;;0.67;;
12852;SDS011;6495;51.808;7.478;2022-11-22T10:51:32;3.03;;;0.83;;
12852;SDS011;6495;51.808;7.478;2022-11-22T10:54:33;2.27;;;1.00;;
12852;SDS011;6495;51.808;7.478;2022-11-22T10:57:31;2.67;;;0.37;;
12852;SDS011;6495;51.808;7.478;2022-11-22T11:00:28;5.23;;;1.43;;
12852;SDS011;6495;51.808;7.478;2022-11-22T11:03:21;1.93;;;0.73;;
12852;SDS011;6495;51.808;7.478;2022-11-22T11:06:15;3.23;;;0.73;;
12852;SDS011;6495;51.808;7.478;2022-11-22T11:09:30;1.97;;;0.90;;
12852;SDS011;6495;51.808;7.478;2022-11-22T11:12:44;1.53;;;0.97;;
12852;SDS011;6495;51.808;7.478;2022-11-22T11:15:37;4.17;;;1.10;;
12852;SDS011;6495;51.808;7.478;2022-11-22T11:18:29;2.50;;;1.07;;
12852;SDS011;6495;51.808;7.478;2022-11-22T11:21:25;3.67;;;0.90;;
12852;SDS011;6495;51.808;7.478;2022-11-22T11:24:13;1.53;;;0.90;;
12852;SDS011;6495;51.808;7.478;2022-11-22T11:27:03;4.13;;;0.90;;
12852;SDS011;6495;51.808;7.478;2022-11-22T11:29:59;0.63;;;0.50;;
12852;SDS011;6495;51.808;7.478;2022-11-22T11:32:49;1.70;;;0.40;;
12852;SDS011;6495;51.808;7.478;2022-11-22T11:35:38;2.53;;;0.60;;
12852;SDS011;6495;51.808;7.478;2022-11-22T11:38:27;0.70;;;0.70;;
12852;SDS011;6495;51.808;7.478;2022-11-22T11:41:21;4.60;;;0.90;;
12852;SDS011;6495;51.808;7.478;2022-11-22T11:44:23;2.20;;;0.83;;
12852;SDS011;6495;51.808;7.478;2022-11-22T11:47:30;6.57;;;1.13;;
12852;SDS011;6495;51.808;7.478;2022-11-22T11:50:19;3.20;;;0.77;;
12852;SDS011;6495;51.808;7.478;2022-11-22T11:53:14;1.00;;;0.70;;
12852;SDS011;6495;51.808;7.478;2022-11-22T11:56:50;2.83;;;1.10;;
12852;SDS011;6495;51.808;7.478;2022-11-22T11:59:43;2.67;;;0.80;;
12852;SDS011;6495;51.808;7.478;2022-11-22T12:02:37;1.00;;;0.67;;
12852;SDS011;6495;51.808;7.478;2022-11-22T12:05:27;0.60;;;0.60;;
12852;SDS011;6495;51.808;7.478;2022-11-22T12:08:25;1.97;;;1.00;;
12852;SDS011;6495;51.808;7.478;2022-11-22T12:11:17;1.13;;;0.70;;
12852;SDS011;6495;51.808;7.478;2022-11-22T12:14:12;2.17;;;0.87;;
12852;SDS011;6495;51.808;7.478;2022-11-22T12:17:34;2.67;;;0.83;;
12852;SDS011;6495;51.808;7.478;2022-11-22T12:20:35;1.57;;;0.90;;
12852;SDS011;6495;51.808;7.478;2022-11-22T12:23:34;2.40;;;0.70;;
12852;SDS011;6495;51.808;7.478;2022-11-22T12:26:34;0.80;;;0.80;;
12852;SDS011;6495;51.808;7.478;2022-11-22T12:29:22;2.57;;;0.70;;
12852;SDS011;6495;51.808;7.478;2022-11-22T12:34:57;0.90;;;0.80;;
12852;SDS011;6495;51.808;7.478;2022-11-22T12:37:55;1.73;;;0.53;;
12852;SDS011;6495;51.808;7.478;2022-11-22T12:40:57;0.57;;;0.57;;
12852;SDS011;6495;51.808;7.478;2022-11-22T12:44:15;1.33;;;0.83;;
12852;SDS011;6495;51.808;7.478;2022-11-22T12:47:42;0.50;;;0.50;;
12852;SDS011;6495;51.808;7.478;2022-11-22T12:51:02;0.63;;;0.47;;
12852;SDS011;6495;51.808;7.478;2022-11-22T12:53:59;2.83;;;0.90;;
12852;SDS011;6495;51.808;7.478;2022-11-22T13:00:13;0.57;;;0.47;;
12852;SDS011;6495;51.808;7.478;2022-11-22T13:03:18;0.63;;;0.50;;
12852;SDS011;6495;51.808;7.478;2022-11-22T13:06:22;2.10;;;0.80;;
12852;SDS011;6495;51.808;7.478;2022-11-22T13:09:14;2.00;;;0.57;;
12852;SDS011;6495;51.808;7.478;2022-11-22T13:12:07;0.77;;;0.67;;
12852;SDS011;6495;51.808;7.478;2022-11-22T13:15:15;0.67;;;0.50;;
12852;SDS011;6495;51.808;7.478;2022-11-22T13:18:15;6.17;;;0.80;;
12852;SDS011;6495;51.808;7.478;2022-11-22T13:21:04;1.20;;;0.80;;
12852;SDS011;6495;51.808;7.478;2022-11-22T13:24:09;0.93;;;0.50;;
12852;SDS011;6495;51.808;7.478;2022-11-22T13:27:15;2.83;;;1.00;;
12852;SDS011;6495;51.808;7.478;2022-11-22T13:30:14;1.07;;;0.80;;
12852;SDS011;6495;51.808;7.478;2022-11-22T13:33:04;1.33;;;0.70;;
12852;SDS011;6495;51.808;7.478;2022-11-22T13:39:26;2.97;;;0.77;;
12852;SDS011;6495;51.808;7.478;2022-11-22T13:42:14;1.97;;;0.90;;
12852;SDS011;6495;51.808;7.478;2022-11-22T13:45:18;3.13;;;0.80;;
12852;SDS011;6495;51.808;7.478;2022-11-22T13:48:07;0.60;;;0.50;;
12852;SDS011;6495;51.808;7.478;2022-11-22T13:50:58;2.80;;;0.77;;
12852;SDS011;6495;51.808;7.478;2022-11-22T13:53:46;0.20;;;0.20;;
12852;SDS011;6495;51.808;7.478;2022-11-22T13:56:47;0.67;;;0.40;;
12852;SDS011;6495;51.808;7.478;2022-11-22T13:59:45;0.50;;;0.50;;
12852;SDS011;6495;51.808;7.478;2022-11-22T14:02:32;0.50;;;0.50;;
12852;SDS011;6495;51.808;7.478;2022-11-22T14:05:20;1.13;;;0.57;;
12852;SDS011;6495;51.808;7.478;2022-11-22T14:08:25;1.20;;;0.63;;
12852;SDS011;6495;51.808;7.478;2022-11-22T14:11:29;1.77;;;0.60;;
12852;SDS011;6495;51.808;7.478;2022-11-22T14:14:39;2.73;;;0.60;;
12852;SDS011;6495;51.808;7.478;2022-11-22T14:18:08;1.40;;;0.40;;
12852;SDS011;6495;51.808;7.478;2022-11-22T14:21:21;1.83;;;0.77;;
12852;SDS011;6495;51.808;7.478;2022-11-22T14:24:41;1.50;;;0.50;;
12852;SDS011;6495;51.808;7.478;2022-11-22T14:27:44;1.63;;;0.33;;
12852;SDS011;6495;51.808;7.478;2022-11-22T14:30:42;2.90;;;0.70;;
12852;SDS011;6495;51.808;7.478;2022-11-22T14:33:35;1.80;;;0.80;;
12852;SDS011;6495;51.808;7.478;2022-11-22T14:40:34;2.20;;;0.50;;
12852;SDS011;6495;51.808;7.478;2022-11-22T14:43:28;2.10;;;0.97;;
12852;SDS011;6495;51.808;7.478;2022-11-22T14:46:24;0.80;;;0.60;;
12852;SDS011;6495;51.808;7.478;2022-11-22T14:49:39;0.60;;;0.50;;
12852;SDS011;6495;51.808;7.478;2022-11-22T14:52:31;1.90;;;0.90;;
12852;SDS011;6495;51.808;7.478;2022-11-22T14:55:29;1.13;;;0.47;;
12852;SDS011;6495;51.808;7.478;2022-11-22T14:58:22;1.73;;;0.90;;
12852;SDS011;6495;51.808;7.478;2022-11-22T15:01:24;0.77;;;0.60;;
12852;SDS011;6495;51.808;7.478;2022-11-22T15:04:47;1.17;;;0.43;;
12852;SDS011;6495;51.808;7.478;2022-11-22T15:08:10;0.70;;;0.43;;
12852;SDS011;6495;51.808;7.478;2022-11-22T15:11:36;2.00;;;0.57;;
12852;SDS011;6495;51.808;7.478;2022-11-22T15:18:29;1.77;;;0.50;;
12852;SDS011;6495;51.808;7.478;2022-11-22T15:21:42;0.70;;;0.70;;
12852;SDS011;6495;51.808;7.478;2022-11-22T15:24:50;0.80;;;0.70;;
12852;SDS011;6495;51.808;7.478;2022-11-22T15:27:58;1.73;;;0.90;;
12852;SDS011;6495;51.808;7.478;2022-11-22T15:31:08;2.03;;;0.67;;
12852;SDS011;6495;51.808;7.478;2022-11-22T15:34:21;1.30;;;0.90;;
12852;SDS011;6495;51.808;7.478;2022-11-22T15:37:30;0.87;;;0.70;;
12852;SDS011;6495;51.808;7.478;2022-11-22T15:40:44;1.47;;;1.20;;
12852;SDS011;6495;51.808;7.478;2022-11-22T15:43:55;0.60;;;0.60;;
12852;SDS011;6495;51.808;7.478;2022-11-22T15:47:04;1.07;;;0.77;;
12852;SDS011;6495;51.808;7.478;2022-11-22T15:50:20;2.83;;;1.00;;
12852;SDS011;6495;51.808;7.478;2022-11-22T15:53:28;2.50;;;0.83;;
12852;SDS011;6495;51.808;7.478;2022-11-22T15:56:36;0.60;;;0.57;;
12852;SDS011;6495;51.808;7.478;2022-11-22T15:59:47;1.57;;;0.80;;
12852;SDS011;6495;51.808;7.478;2022-11-22T16:02:34;3.17;;;0.80;;
12852;SDS011;6495;51.808;7.478;2022-11-22T16:05:34;2.30;;;1.00;;
12852;SDS011;6495;51.808;7.478;2022-11-22T16:08:46;0.70;;;0.70;;
12852;SDS011;6495;51.808;7.478;2022-11-22T16:11:36;1.67;;;0.77;;
12852;SDS011;6495;51.808;7.478;2022-11-22T16:14:38;1.57;;;0.83;;
12852;SDS011;6495;51.808;7.478;2022-11-22T16:17:36;1.07;;;0.83;;
12852;SDS011;6495;51.808;7.478;2022-11-22T16:20:58;1.83;;;0.80;;
12852;SDS011;6495;51.808;7.478;2022-11-22T16:23:46;0.57;;;0.57;;
12852;SDS011;6495;51.808;7.478;2022-11-22T16:26:55;1.13;;;0.97;;
12852;SDS011;6495;51.808;7.478;2022-11-22T16:29:48;1.73;;;1.00;;
12852;SDS011;6495;51.808;7.478;2022-11-22T16:32:36;1.50;;;0.77;;
12852;SDS011;6495;51.808;7.478;2022-11-22T16:35:24;1.03;;;0.60;;
12852;SDS011;6495;51.808;7.478;2022-11-22T16:38:23;3.47;;;0.90;;
12852;SDS011;6495;51.808;7.478;2022-11-22T16:41:21;0.87;;;0.77;;
12852;SDS011;6495;51.808;7.478;2022-11-22T16:44:16;1.00;;;0.90;;
12852;SDS011;6495;51.808;7.478;2022-11-22T16:47:20;2.57;;;1.00;;
12852;SDS011;6495;51.808;7.478;2022-11-22T16:51:00;0.70;;;0.70;;
12852;SDS011;6495;51.808;7.478;2022-11-22T16:54:11;0.83;;;0.83;;
12852;SDS011;6495;51.808;7.478;2022-11-22T16:57:26;2.27;;;0.90;;
12852;SDS011;6495;51.808;7.478;2022-11-22T17:00:16;0.77;;;0.77;;
12852;SDS011;6495;51.808;7.478;2022-11-22T17:03:17;0.77;;;0.77;;
12852;SDS011;6495;51.808;7.478;2022-11-22T17:06:17;1.87;;;1.20;;
12852;SDS011;6495;51.808;7.478;2022-11-22T17:09:38;0.97;;;0.70;;
12852;SDS011;6495;51.808;7.478;2022-11-22T17:12:51;0.87;;;0.87;;
12852;SDS011;6495;51.808;7.478;2022-11-22T17:16:24;1.73;;;1.10;;
12852;SDS011;6495;51.808;7.478;2022-11-22T17:19:19;1.10;;;0.90;;
12852;SDS011;6495;51.808;7.478;2022-11-22T17:22:28;3.00;;;1.10;;
12852;SDS011;6495;51.808;7.478;2022-11-22T17:25:19;2.20;;;1.17;;
12852;SDS011;6495;51.808;7.478;2022-11-22T17:28:19;1.43;;;0.80;;
12852;SDS011;6495;51.808;7.478;2022-11-22T17:31:11;2.67;;;1.17;;
12852;SDS011;6495;51.808;7.478;2022-11-22T17:34:00;1.43;;;1.00;;
12852;SDS011;6495;51.808;7.478;2022-11-22T17:36:47;3.07;;;0.97;;
12852;SDS011;6495;51.808;7.478;2022-11-22T17:39:34;1.73;;;1.20;;
12852;SDS011;6495;51.808;7.478;2022-11-22T17:42:22;0.80;;;0.80;;
12852;SDS011;6495;51.808;7.478;2022-11-22T17:45:09;1.10;;;1.00;;
12852;SDS011;6495;51.808;7.478;2022-11-22T17:47:56;1.47;;;1.20;;
12852;SDS011;6495;51.808;7.478;2022-11-22T17:50:45;4.13;;;1.10;;
12852;SDS011;6495;51.808;7.478;2022-11-22T17:53:32;1.33;;;1.10;;
12852;SDS011;6495;51.808;7.478;2022-11-22T17:56:19;2.27;;;0.90;;
12852;SDS011;6495;51.808;7.478;2022-11-22T17:59:10;2.53;;;1.00;;
12852;SDS011;6495;51.808;7.478;2022-11-22T18:01:57;1.57;;;1.20;;